0S9

Jefferson County International Airport

Port Townsend, Washington, USA
METAR K0S9 201815Z AUTO 09008KT 10SM BKN110 11/05 A3023 RMK AO2
Observed Flight Rules
Apr-20 @ 18:15 UTC (16 minutes ago) Visual Flight Rules
Wind Visibility Clouds
90° at 8 knots 10 miles
  • Broken at 11,000' AGL
Temperatures Readings
Current 11°C / 52°F
Dewpoint 5°C / 41°F
Humidity 67%
Altimeter 30.23" Hg
Pressure 1024 hPa
Elevation 33
METAR K0S9 201815Z AUTO 09008KT 10SM BKN110 11/05 A3023 RMK AO2
Observed Flight Rules
Apr-20 @ 18:15 UTC
(16 minutes ago)
VFR
Wind Visibility
90° at 8 knots 10 miles
Clouds
  • Broken at 11,000' AGL
Temperature Dewpoint
11°C / 52°F 5°C / 41°F
Humidity Altimeter Pressure
67% 30.23" Hg 1024 hPa